sensor_id;sensor_type;location;lat;lon;timestamp;pressure;altitude;pressure_sealevel;temperature;humidity
43745;BME280;29359;53.048;8.732;2023-05-27T00:01:22;103115.38;;;8.89;72.09
43745;BME280;29359;53.048;8.732;2023-05-27T00:03:24;103112.72;;;8.87;71.52
43745;BME280;29359;53.048;8.732;2023-05-27T00:05:26;103110.91;;;8.83;71.39
43745;BME280;29359;53.048;8.732;2023-05-27T00:07:27;103115.31;;;8.82;71.74
43745;BME280;29359;53.048;8.732;2023-05-27T00:09:29;103109.97;;;8.78;72.60
43745;BME280;29359;53.048;8.732;2023-05-27T00:11:31;103106.41;;;8.74;72.31
43745;BME280;29359;53.048;8.732;2023-05-27T00:13:32;103108.16;;;8.74;72.85
43745;BME280;29359;53.048;8.732;2023-05-27T00:15:34;103113.38;;;8.72;72.24
43745;BME280;29359;53.048;8.732;2023-05-27T00:17:36;103109.84;;;8.70;72.28
43745;BME280;29359;53.048;8.732;2023-05-27T00:19:37;103110.72;;;8.69;72.28
43745;BME280;29359;53.048;8.732;2023-05-27T00:21:40;103103.63;;;8.67;71.63
43745;BME280;29359;53.048;8.732;2023-05-27T00:23:45;103107.09;;;8.64;71.75
43745;BME280;29359;53.048;8.732;2023-05-27T00:25:46;103107.94;;;8.62;71.38
43745;BME280;29359;53.048;8.732;2023-05-27T00:27:48;103110.53;;;8.60;71.27
43745;BME280;29359;53.048;8.732;2023-05-27T00:29:50;103107.84;;;8.57;72.17
43745;BME280;29359;53.048;8.732;2023-05-27T00:31:52;103117.44;;;8.54;72.33
43745;BME280;29359;53.048;8.732;2023-05-27T00:33:53;103109.50;;;8.50;72.48
43745;BME280;29359;53.048;8.732;2023-05-27T00:35:55;103114.75;;;8.49;72.11
43745;BME280;29359;53.048;8.732;2023-05-27T00:37:56;103106.78;;;8.44;72.00
43745;BME280;29359;53.048;8.732;2023-05-27T00:39:58;103107.56;;;8.40;72.19
43745;BME280;29359;53.048;8.732;2023-05-27T00:42:00;103110.16;;;8.37;72.24
43745;BME280;29359;53.048;8.732;2023-05-27T00:44:02;103101.31;;;8.34;72.52
43745;BME280;29359;53.048;8.732;2023-05-27T00:46:05;103101.22;;;8.29;71.48
43745;BME280;29359;53.048;8.732;2023-05-27T00:48:06;103097.66;;;8.27;71.93
43745;BME280;29359;53.048;8.732;2023-05-27T00:50:08;103101.16;;;8.26;72.17
43745;BME280;29359;53.048;8.732;2023-05-27T00:52:10;103101.06;;;8.23;72.36
43745;BME280;29359;53.048;8.732;2023-05-27T00:54:14;103096.69;;;8.22;72.51
43745;BME280;29359;53.048;8.732;2023-05-27T00:56:16;103093.13;;;8.20;72.31
43745;BME280;29359;53.048;8.732;2023-05-27T00:58:17;103092.28;;;8.21;72.67
43745;BME280;29359;53.048;8.732;2023-05-27T01:00:22;103086.09;;;8.19;72.44
43745;BME280;29359;53.048;8.732;2023-05-27T01:02:24;103085.22;;;8.18;72.59
43745;BME280;29359;53.048;8.732;2023-05-27T01:04:25;103087.84;;;8.18;72.10
43745;BME280;29359;53.048;8.732;2023-05-27T01:09:03;103085.16;;;8.15;72.04
43745;BME280;29359;53.048;8.732;2023-05-27T01:11:08;103087.72;;;8.11;72.01
43745;BME280;29359;53.048;8.732;2023-05-27T01:13:16;103087.69;;;8.09;72.18
43745;BME280;29359;53.048;8.732;2023-05-27T01:15:19;103084.16;;;8.09;71.86
43745;BME280;29359;53.048;8.732;2023-05-27T01:17:23;103085.88;;;8.07;71.99
43745;BME280;29359;53.048;8.732;2023-05-27T01:19:30;103088.47;;;8.04;72.04
43745;BME280;29359;53.048;8.732;2023-05-27T01:21:34;103084.00;;;8.00;72.30
43745;BME280;29359;53.048;8.732;2023-05-27T01:23:38;103088.34;;;7.98;72.38
43745;BME280;29359;53.048;8.732;2023-05-27T01:25:40;103083.03;;;7.95;72.07
43745;BME280;29359;53.048;8.732;2023-05-27T01:27:41;103085.63;;;7.93;72.62
43745;BME280;29359;53.048;8.732;2023-05-27T01:29:43;103090.00;;;7.93;72.82
43745;BME280;29359;53.048;8.732;2023-05-27T01:34:02;103090.00;;;7.93;72.66
43745;BME280;29359;53.048;8.732;2023-05-27T01:36:10;103090.91;;;7.93;72.13
43745;BME280;29359;53.048;8.732;2023-05-27T01:38:17;103090.00;;;7.93;71.91
43745;BME280;29359;53.048;8.732;2023-05-27T01:40:20;103092.63;;;7.93;72.05
43745;BME280;29359;53.048;8.732;2023-05-27T01:42:22;103082.09;;;7.91;71.72
43745;BME280;29359;53.048;8.732;2023-05-27T01:44:24;103088.25;;;7.92;71.73
43745;BME280;29359;53.048;8.732;2023-05-27T01:46:26;103087.34;;;7.91;71.80
43745;BME280;29359;53.048;8.732;2023-05-27T01:48:27;103087.34;;;7.91;71.86
43745;BME280;29359;53.048;8.732;2023-05-27T01:50:29;103086.47;;;7.91;71.69
43745;BME280;29359;53.048;8.732;2023-05-27T01:52:31;103082.94;;;7.90;71.73
43745;BME280;29359;53.048;8.732;2023-05-27T01:54:33;103082.91;;;7.88;71.78
43745;BME280;29359;53.048;8.732;2023-05-27T01:56:35;103084.63;;;7.86;71.71
43745;BME280;29359;53.048;8.732;2023-05-27T01:58:36;103079.38;;;7.86;71.77
43745;BME280;29359;53.048;8.732;2023-05-27T02:00:38;103077.56;;;7.82;73.62
43745;BME280;29359;53.048;8.732;2023-05-27T02:02:40;103085.28;;;7.76;75.41
43745;BME280;29359;53.048;8.732;2023-05-27T02:04:41;103081.69;;;7.71;75.83
43745;BME280;29359;53.048;8.732;2023-05-27T02:06:43;103076.34;;;7.67;76.07
43745;BME280;29359;53.048;8.732;2023-05-27T02:08:44;103078.03;;;7.63;76.40
43745;BME280;29359;53.048;8.732;2023-05-27T02:10:46;103074.38;;;7.56;77.00
43745;BME280;29359;53.048;8.732;2023-05-27T02:12:47;103072.59;;;7.54;77.35
43745;BME280;29359;53.048;8.732;2023-05-27T02:14:49;103079.59;;;7.53;76.05
43745;BME280;29359;53.048;8.732;2023-05-27T02:16:52;103074.34;;;7.53;75.11
43745;BME280;29359;53.048;8.732;2023-05-27T02:18:54;103077.84;;;7.54;75.15
43745;BME280;29359;53.048;8.732;2023-05-27T02:20:56;103072.56;;;7.52;74.81
43745;BME280;29359;53.048;8.732;2023-05-27T02:22:57;103073.44;;;7.53;74.86
43745;BME280;29359;53.048;8.732;2023-05-27T02:24:59;103070.78;;;7.51;74.21
43745;BME280;29359;53.048;8.732;2023-05-27T02:27:01;103073.38;;;7.50;73.35
43745;BME280;29359;53.048;8.732;2023-05-27T02:29:03;103073.31;;;7.47;74.12
43745;BME280;29359;53.048;8.732;2023-05-27T02:31:04;103072.38;;;7.43;74.62
43745;BME280;29359;53.048;8.732;2023-05-27T02:33:06;103073.19;;;7.41;74.77
43745;BME280;29359;53.048;8.732;2023-05-27T02:35:08;103067.88;;;7.38;75.01
43745;BME280;29359;53.048;8.732;2023-05-27T02:37:10;103067.81;;;7.36;74.72
43745;BME280;29359;53.048;8.732;2023-05-27T02:39:11;103060.75;;;7.34;73.67
43745;BME280;29359;53.048;8.732;2023-05-27T02:41:13;103055.47;;;7.32;73.17
43745;BME280;29359;53.048;8.732;2023-05-27T02:43:14;103059.81;;;7.30;73.33
43745;BME280;29359;53.048;8.732;2023-05-27T02:45:16;103064.16;;;7.28;73.82
43745;BME280;29359;53.048;8.732;2023-05-27T02:47:18;103065.00;;;7.27;73.35
43745;BME280;29359;53.048;8.732;2023-05-27T02:49:20;103065.88;;;7.26;72.96
43745;BME280;29359;53.048;8.732;2023-05-27T02:51:21;103070.22;;;7.25;73.04
43745;BME280;29359;53.048;8.732;2023-05-27T02:53:23;103066.66;;;7.22;73.66
43745;BME280;29359;53.048;8.732;2023-05-27T02:55:25;103070.09;;;7.19;75.03
43745;BME280;29359;53.048;8.732;2023-05-27T02:57:26;103065.63;;;7.15;75.10
43745;BME280;29359;53.048;8.732;2023-05-27T02:59:28;103067.34;;;7.13;75.14
43745;BME280;29359;53.048;8.732;2023-05-27T03:01:30;103071.69;;;7.11;74.82
43745;BME280;29359;53.048;8.732;2023-05-27T03:03:31;103083.94;;;7.11;74.01
43745;BME280;29359;53.048;8.732;2023-05-27T03:05:36;103083.03;;;7.10;74.24
43745;BME280;29359;53.048;8.732;2023-05-27T03:07:38;103084.78;;;7.10;74.33
43745;BME280;29359;53.048;8.732;2023-05-27T03:09:39;103085.66;;;7.10;73.96
43745;BME280;29359;53.048;8.732;2023-05-27T03:11:41;103076.06;;;7.11;73.14
43745;BME280;29359;53.048;8.732;2023-05-27T03:13:42;103073.38;;;7.09;72.91
43745;BME280;29359;53.048;8.732;2023-05-27T03:15:44;103073.34;;;7.08;72.55
43745;BME280;29359;53.048;8.732;2023-05-27T03:17:45;103069.81;;;7.06;72.53
43745;BME280;29359;53.048;8.732;2023-05-27T03:19:47;103075.91;;;7.05;72.85
43745;BME280;29359;53.048;8.732;2023-05-27T03:21:50;103069.81;;;7.06;72.13
43745;BME280;29359;53.048;8.732;2023-05-27T03:23:53;103068.94;;;7.05;72.58
43745;BME280;29359;53.048;8.732;2023-05-27T03:25:55;103067.16;;;7.04;72.70
43745;BME280;29359;53.048;8.732;2023-05-27T03:27:57;103073.28;;;7.05;71.83
43745;BME280;29359;53.048;8.732;2023-05-27T03:29:58;103072.41;;;7.04;72.25
43745;BME280;29359;53.048;8.732;2023-05-27T03:32:00;103072.41;;;7.04;72.01
43745;BME280;29359;53.048;8.732;2023-05-27T03:34:02;103072.41;;;7.04;71.93
43745;BME280;29359;53.048;8.732;2023-05-27T03:36:04;103068.03;;;7.05;72.01
43745;BME280;29359;53.048;8.732;2023-05-27T03:38:05;103064.53;;;7.04;71.94
43745;BME280;29359;53.048;8.732;2023-05-27T03:40:07;103069.78;;;7.04;72.24
43745;BME280;29359;53.048;8.732;2023-05-27T03:42:10;103070.56;;;7.00;73.27
43745;BME280;29359;53.048;8.732;2023-05-27T03:44:11;103069.66;;;6.98;73.28
43745;BME280;29359;53.048;8.732;2023-05-27T03:46:13;103063.47;;;6.96;73.89
43745;BME280;29359;53.048;8.732;2023-05-27T03:48:15;103061.69;;;6.95;73.93
43745;BME280;29359;53.048;8.732;2023-05-27T03:50:16;103063.47;;;6.96;73.96
43745;BME280;29359;53.048;8.732;2023-05-27T03:52:18;103062.63;;;6.97;73.52
43745;BME280;29359;53.048;8.732;2023-05-27T03:54:19;103066.13;;;6.98;73.34
43745;BME280;29359;53.048;8.732;2023-05-27T03:56:21;103065.34;;;7.02;73.16
43745;BME280;29359;53.048;8.732;2023-05-27T03:58:23;103063.66;;;7.05;73.00
43745;BME280;29359;53.048;8.732;2023-05-27T04:00:24;103070.75;;;7.09;72.42
43745;BME280;29359;53.048;8.732;2023-05-27T04:02:26;103065.56;;;7.12;73.11
43745;BME280;29359;53.048;8.732;2023-05-27T04:04:27;103069.97;;;7.13;72.98
43745;BME280;29359;53.048;8.732;2023-05-27T04:06:29;103077.06;;;7.17;73.20
43745;BME280;29359;53.048;8.732;2023-05-27T04:08:32;103076.28;;;7.21;73.17
43745;BME280;29359;53.048;8.732;2023-05-27T04:10:34;103072.78;;;7.22;74.55
43745;BME280;29359;53.048;8.732;2023-05-27T04:12:36;103065.81;;;7.24;75.13
43745;BME280;29359;53.048;8.732;2023-05-27T04:14:37;103072.91;;;7.29;75.98
43745;BME280;29359;53.048;8.732;2023-05-27T04:16:39;103079.19;;;7.35;75.32
43745;BME280;29359;53.048;8.732;2023-05-27T04:18:42;103075.03;;;7.45;75.27
43745;BME280;29359;53.048;8.732;2023-05-27T04:20:49;103071.72;;;7.53;75.26
43745;BME280;29359;53.048;8.732;2023-05-27T04:22:52;103066.56;;;7.60;75.87
43745;BME280;29359;53.048;8.732;2023-05-27T04:24:53;103071.13;;;7.68;75.51
43745;BME280;29359;53.048;8.732;2023-05-27T04:26:55;103070.44;;;7.78;74.66
43745;BME280;29359;53.048;8.732;2023-05-27T04:28:56;103074.19;;;7.90;74.57
43745;BME280;29359;53.048;8.732;2023-05-27T04:31:01;103075.25;;;8.01;74.32
43745;BME280;29359;53.048;8.732;2023-05-27T04:33:03;103069.28;;;8.11;74.17
43745;BME280;29359;53.048;8.732;2023-05-27T04:35:07;103067.72;;;8.22;75.54
43745;BME280;29359;53.048;8.732;2023-05-27T04:37:10;103067.88;;;8.30;73.41
43745;BME280;29359;53.048;8.732;2023-05-27T04:39:12;103063.72;;;8.41;72.61
43745;BME280;29359;53.048;8.732;2023-05-27T04:41:14;103066.56;;;8.55;72.45
43745;BME280;29359;53.048;8.732;2023-05-27T04:43:15;103064.97;;;8.66;71.06
43745;BME280;29359;53.048;8.732;2023-05-27T04:45:17;103066.91;;;8.76;69.53
43745;BME280;29359;53.048;8.732;2023-05-27T04:47:18;103076.75;;;8.89;69.25
43745;BME280;29359;53.048;8.732;2023-05-27T04:49:22;103070.75;;;8.99;69.34
43745;BME280;29359;53.048;8.732;2023-05-27T04:51:24;103072.63;;;9.08;69.99
43745;BME280;29359;53.048;8.732;2023-05-27T04:53:25;103063.94;;;9.13;66.15
43745;BME280;29359;53.048;8.732;2023-05-27T04:55:27;103055.31;;;9.24;66.91
43745;BME280;29359;53.048;8.732;2023-05-27T04:57:28;103056.28;;;9.32;67.39
43745;BME280;29359;53.048;8.732;2023-05-27T04:59:30;103054.63;;;9.40;65.85
43745;BME280;29359;53.048;8.732;2023-05-27T05:01:47;103047.69;;;9.50;65.86
43745;BME280;29359;53.048;8.732;2023-05-27T05:04:07;103045.19;;;9.57;64.38
43745;BME280;29359;53.048;8.732;2023-05-27T05:06:15;103045.22;;;9.62;64.97
43745;BME280;29359;53.048;8.732;2023-05-27T05:08:18;103042.69;;;9.71;65.87
43745;BME280;29359;53.048;8.732;2023-05-27T05:10:20;103044.53;;;9.80;64.77
43745;BME280;29359;53.048;8.732;2023-05-27T05:12:23;103043.72;;;9.87;64.34
43745;BME280;29359;53.048;8.732;2023-05-27T05:14:25;103050.84;;;9.97;65.71
43745;BME280;29359;53.048;8.732;2023-05-27T05:16:26;103050.09;;;10.05;65.67
43745;BME280;29359;53.048;8.732;2023-05-27T05:18:28;103052.78;;;10.13;65.15
43745;BME280;29359;53.048;8.732;2023-05-27T05:20:30;103053.72;;;10.20;65.71
43745;BME280;29359;53.048;8.732;2023-05-27T05:22:32;103052.06;;;10.28;65.20
43745;BME280;29359;53.048;8.732;2023-05-27T05:24:33;103053.88;;;10.33;65.03
43745;BME280;29359;53.048;8.732;2023-05-27T05:26:35;103050.38;;;10.39;65.49
43745;BME280;29359;53.048;8.732;2023-05-27T05:28:36;103050.44;;;10.42;65.57
43745;BME280;29359;53.048;8.732;2023-05-27T05:30:38;103052.22;;;10.46;65.84
43745;BME280;29359;53.048;8.732;2023-05-27T05:32:40;103051.38;;;10.49;65.43
43745;BME280;29359;53.048;8.732;2023-05-27T05:34:42;103047.88;;;10.53;66.68
43745;BME280;29359;53.048;8.732;2023-05-27T05:36:44;103055.81;;;10.56;66.50
43745;BME280;29359;53.048;8.732;2023-05-27T05:38:46;103051.41;;;10.55;66.30
43745;BME280;29359;53.048;8.732;2023-05-27T05:40:48;103053.19;;;10.56;66.87
43745;BME280;29359;53.048;8.732;2023-05-27T05:42:54;103050.56;;;10.60;67.07
43745;BME280;29359;53.048;8.732;2023-05-27T05:44:55;103054.13;;;10.64;67.86
43745;BME280;29359;53.048;8.732;2023-05-27T05:46:57;103055.03;;;10.69;67.48
43745;BME280;29359;53.048;8.732;2023-05-27T05:48:58;103055.06;;;10.74;67.54
43745;BME280;29359;53.048;8.732;2023-05-27T05:51:00;103048.03;;;10.79;67.66
43745;BME280;29359;53.048;8.732;2023-05-27T05:53:05;103053.34;;;10.83;67.84
43745;BME280;29359;53.048;8.732;2023-05-27T05:55:07;103060.47;;;10.90;67.65
43745;BME280;29359;53.048;8.732;2023-05-27T05:57:08;103060.50;;;10.96;67.69
43745;BME280;29359;53.048;8.732;2023-05-27T05:59:10;103049.97;;;11.02;68.03
43745;BME280;29359;53.048;8.732;2023-05-27T06:01:12;103052.66;;;11.10;68.40
43745;BME280;29359;53.048;8.732;2023-05-27T06:03:14;103058.84;;;11.20;68.27
43745;BME280;29359;53.048;8.732;2023-05-27T06:05:15;103054.50;;;11.28;68.70
43745;BME280;29359;53.048;8.732;2023-05-27T06:07:17;103054.53;;;11.36;68.24
43745;BME280;29359;53.048;8.732;2023-05-27T06:09:18;103059.88;;;11.45;68.02
43745;BME280;29359;53.048;8.732;2023-05-27T06:11:20;103053.72;;;11.52;68.91
43745;BME280;29359;53.048;8.732;2023-05-27T06:13:22;103059.03;;;11.58;68.47
43745;BME280;29359;53.048;8.732;2023-05-27T06:15:24;103052.00;;;11.68;67.98
43745;BME280;29359;53.048;8.732;2023-05-27T06:17:26;103052.91;;;11.74;67.69
43745;BME280;29359;53.048;8.732;2023-05-27T06:19:28;103052.97;;;11.82;67.87
43745;BME280;29359;53.048;8.732;2023-05-27T06:21:30;103057.38;;;11.89;67.29
43745;BME280;29359;53.048;8.732;2023-05-27T06:23:33;103046.81;;;11.95;67.41
43745;BME280;29359;53.048;8.732;2023-05-27T06:25:34;103045.94;;;12.02;67.50
43745;BME280;29359;53.048;8.732;2023-05-27T06:27:36;103044.16;;;12.09;67.63
43745;BME280;29359;53.048;8.732;2023-05-27T06:29:37;103041.56;;;12.15;68.50
43745;BME280;29359;53.048;8.732;2023-05-27T06:31:39;103043.31;;;12.20;68.89
43745;BME280;29359;53.048;8.732;2023-05-27T06:33:41;103041.56;;;12.25;69.28
43745;BME280;29359;53.048;8.732;2023-05-27T06:35:43;103046.84;;;12.32;69.77
43745;BME280;29359;53.048;8.732;2023-05-27T06:37:45;103040.66;;;12.42;68.73
43745;BME280;29359;53.048;8.732;2023-05-27T06:39:48;103033.56;;;12.51;68.03
43745;BME280;29359;53.048;8.732;2023-05-27T06:41:50;103034.47;;;12.61;68.20
43745;BME280;29359;53.048;8.732;2023-05-27T06:43:52;103034.47;;;12.69;67.32
43745;BME280;29359;53.048;8.732;2023-05-27T06:45:53;103040.63;;;12.77;67.68
43745;BME280;29359;53.048;8.732;2023-05-27T06:48:05;103044.13;;;12.85;67.56
43745;BME280;29359;53.048;8.732;2023-05-27T06:50:07;103035.28;;;12.92;67.17
43745;BME280;29359;53.048;8.732;2023-05-27T06:52:09;103037.03;;;12.98;67.49
43745;BME280;29359;53.048;8.732;2023-05-27T06:54:15;103035.28;;;13.03;67.34
43745;BME280;29359;53.048;8.732;2023-05-27T06:56:16;103025.50;;;13.11;67.81
43745;BME280;29359;53.048;8.732;2023-05-27T06:58:18;103033.47;;;13.17;68.17
43745;BME280;29359;53.048;8.732;2023-05-27T07:00:19;103036.13;;;13.22;68.26
43745;BME280;29359;53.048;8.732;2023-05-27T07:02:21;103033.44;;;13.26;69.12
43745;BME280;29359;53.048;8.732;2023-05-27T07:04:23;103027.22;;;13.32;69.23
43745;BME280;29359;53.048;8.732;2023-05-27T07:06:24;103024.59;;;13.27;70.32
43745;BME280;29359;53.048;8.732;2023-05-27T07:08:26;103020.16;;;13.31;70.81
43745;BME280;29359;53.048;8.732;2023-05-27T07:10:27;103021.88;;;13.41;70.41
43745;BME280;29359;53.048;8.732;2023-05-27T07:12:29;103020.09;;;13.49;70.30
43745;BME280;29359;53.048;8.732;2023-05-27T07:14:31;103017.38;;;13.58;69.78
43745;BME280;29359;53.048;8.732;2023-05-27T07:16:32;103019.09;;;13.67;69.64
43745;BME280;29359;53.048;8.732;2023-05-27T07:18:34;103019.03;;;13.74;69.89
43745;BME280;29359;53.048;8.732;2023-05-27T07:20:35;103011.00;;;13.82;70.09
43745;BME280;29359;53.048;8.732;2023-05-27T07:22:37;103010.09;;;13.89;69.78
43745;BME280;29359;53.048;8.732;2023-05-27T07:24:39;103007.38;;;13.98;69.91
43745;BME280;29359;53.048;8.732;2023-05-27T07:26:40;102995.84;;;14.01;70.38
43745;BME280;29359;53.048;8.732;2023-05-27T07:28:43;103001.09;;;14.08;70.59
43745;BME280;29359;53.048;8.732;2023-05-27T07:30:44;103001.00;;;14.18;70.67
43745;BME280;29359;53.048;8.732;2023-05-27T07:32:46;103000.94;;;14.25;70.63
43745;BME280;29359;53.048;8.732;2023-05-27T07:34:49;103001.91;;;14.15;69.78
43745;BME280;29359;53.048;8.732;2023-05-27T07:36:51;103008.13;;;14.14;70.22
43745;BME280;29359;53.048;8.732;2023-05-27T07:38:53;103004.59;;;14.13;69.97
43745;BME280;29359;53.048;8.732;2023-05-27T07:40:54;102998.28;;;14.24;70.21
43745;BME280;29359;53.048;8.732;2023-05-27T07:42:56;103003.59;;;14.25;70.08
43745;BME280;29359;53.048;8.732;2023-05-27T07:44:57;102996.56;;;14.20;70.48
43745;BME280;29359;53.048;8.732;2023-05-27T07:46:59;102994.81;;;14.19;70.85
43745;BME280;29359;53.048;8.732;2023-05-27T07:49:02;102996.47;;;14.29;72.08
43745;BME280;29359;53.048;8.732;2023-05-27T07:51:03;102988.41;;;14.41;71.73
43745;BME280;29359;53.048;8.732;2023-05-27T07:53:05;102992.78;;;14.51;71.55
43745;BME280;29359;53.048;8.732;2023-05-27T07:55:07;102984.66;;;14.65;71.62
43745;BME280;29359;53.048;8.732;2023-05-27T07:57:09;102981.88;;;14.79;71.48
43745;BME280;29359;53.048;8.732;2023-05-27T07:59:10;102984.41;;;14.88;71.05
43745;BME280;29359;53.048;8.732;2023-05-27T08:01:12;102987.97;;;14.87;69.98
43745;BME280;29359;53.048;8.732;2023-05-27T08:03:13;102993.22;;;14.93;70.24
43745;BME280;29359;53.048;8.732;2023-05-27T08:05:15;102990.44;;;15.02;70.64
43745;BME280;29359;53.048;8.732;2023-05-27T08:07:17;102981.44;;;15.12;70.09
43745;BME280;29359;53.048;8.732;2023-05-27T08:09:19;102980.44;;;15.22;69.62
43745;BME280;29359;53.048;8.732;2023-05-27T08:11:20;102989.19;;;15.32;69.50
43745;BME280;29359;53.048;8.732;2023-05-27T08:13:23;102979.47;;;15.29;67.02
43745;BME280;29359;53.048;8.732;2023-05-27T08:15:24;102978.72;;;15.18;66.58
43745;BME280;29359;53.048;8.732;2023-05-27T08:17:26;102979.59;;;15.17;67.34
43745;BME280;29359;53.048;8.732;2023-05-27T08:19:28;102981.16;;;15.33;68.04
43745;BME280;29359;53.048;8.732;2023-05-27T08:21:30;102977.38;;;15.50;69.04
43745;BME280;29359;53.048;8.732;2023-05-27T08:23:32;102971.91;;;15.63;68.91
43745;BME280;29359;53.048;8.732;2023-05-27T08:25:33;102962.88;;;15.74;68.60
43745;BME280;29359;53.048;8.732;2023-05-27T08:28:01;102960.00;;;15.86;68.08
43745;BME280;29359;53.048;8.732;2023-05-27T08:30:03;102958.91;;;15.97;67.64
43745;BME280;29359;53.048;8.732;2023-05-27T08:32:05;102957.84;;;16.09;67.02
43745;BME280;29359;53.048;8.732;2023-05-27T08:34:07;102956.81;;;16.18;66.51
43745;BME280;29359;53.048;8.732;2023-05-27T08:36:09;102962.84;;;16.27;66.02
43745;BME280;29359;53.048;8.732;2023-05-27T08:38:13;102953.84;;;16.34;65.74
43745;BME280;29359;53.048;8.732;2023-05-27T08:40:16;102946.69;;;16.37;65.06
43745;BME280;29359;53.048;8.732;2023-05-27T08:42:17;102953.66;;;16.44;65.03
43745;BME280;29359;53.048;8.732;2023-05-27T08:44:23;102958.03;;;16.49;64.15
43745;BME280;29359;53.048;8.732;2023-05-27T08:46:25;102950.97;;;16.45;62.69
43745;BME280;29359;53.048;8.732;2023-05-27T08:48:27;102955.50;;;16.40;64.51
43745;BME280;29359;53.048;8.732;2023-05-27T08:50:29;102952.88;;;16.39;65.47
43745;BME280;29359;53.048;8.732;2023-05-27T08:52:31;102949.25;;;16.41;65.30
43745;BME280;29359;53.048;8.732;2023-05-27T08:54:34;102943.88;;;16.44;64.44
43745;BME280;29359;53.048;8.732;2023-05-27T08:56:37;102949.94;;;16.54;65.03
43745;BME280;29359;53.048;8.732;2023-05-27T08:58:41;102949.72;;;16.64;64.89
43745;BME280;29359;53.048;8.732;2023-05-27T09:00:43;102943.34;;;16.73;63.98
43745;BME280;29359;53.048;8.732;2023-05-27T09:02:45;102932.59;;;16.78;63.39
43745;BME280;29359;53.048;8.732;2023-05-27T09:04:47;102939.59;;;16.82;63.52
43745;BME280;29359;53.048;8.732;2023-05-27T09:06:49;102926.19;;;16.85;62.47
43745;BME280;29359;53.048;8.732;2023-05-27T09:08:51;102926.97;;;16.90;62.24
43745;BME280;29359;53.048;8.732;2023-05-27T09:10:53;102924.25;;;16.94;61.70
43745;BME280;29359;53.048;8.732;2023-05-27T09:12:56;102924.16;;;16.99;60.94
43745;BME280;29359;53.048;8.732;2023-05-27T09:14:57;102927.53;;;17.07;61.23
43745;BME280;29359;53.048;8.732;2023-05-27T09:17:05;102918.47;;;17.14;61.25
43745;BME280;29359;53.048;8.732;2023-05-27T09:19:20;102921.06;;;17.17;60.20
43745;BME280;29359;53.048;8.732;2023-05-27T09:21:24;102916.66;;;17.15;60.09
43745;BME280;29359;53.048;8.732;2023-05-27T09:23:27;102922.25;;;17.04;59.46
43745;BME280;29359;53.048;8.732;2023-05-27T09:25:29;102922.09;;;17.12;60.68
43745;BME280;29359;53.048;8.732;2023-05-27T09:27:31;102916.50;;;17.22;60.69
43745;BME280;29359;53.048;8.732;2023-05-27T09:29:37;102914.63;;;17.26;59.82
43745;BME280;29359;53.048;8.732;2023-05-27T09:31:42;102908.16;;;17.38;60.22
43745;BME280;29359;53.048;8.732;2023-05-27T09:33:43;102907.28;;;17.37;58.10
43745;BME280;29359;53.048;8.732;2023-05-27T09:35:46;102901.03;;;17.38;58.05
43745;BME280;29359;53.048;8.732;2023-05-27T09:37:48;102915.22;;;17.40;59.01
43745;BME280;29359;53.048;8.732;2023-05-27T09:39:52;102905.06;;;17.54;59.77
43745;BME280;29359;53.048;8.732;2023-05-27T09:41:54;102900.28;;;17.69;58.47
43745;BME280;29359;53.048;8.732;2023-05-27T09:43:57;102909.03;;;17.75;57.35
43745;BME280;29359;53.048;8.732;2023-05-27T09:46:07;102902.31;;;17.57;55.47
43745;BME280;29359;53.048;8.732;2023-05-27T09:48:12;102900.53;;;17.58;57.78
43745;BME280;29359;53.048;8.732;2023-05-27T09:50:19;102905.53;;;17.73;61.30
43745;BME280;29359;53.048;8.732;2023-05-27T09:52:22;102895.47;;;17.84;64.32
43745;BME280;29359;53.048;8.732;2023-05-27T09:54:24;102893.44;;;17.94;65.49
43745;BME280;29359;53.048;8.732;2023-05-27T09:56:27;102889.69;;;18.01;64.83
43745;BME280;29359;53.048;8.732;2023-05-27T09:58:28;102890.31;;;18.11;64.23
43745;BME280;29359;53.048;8.732;2023-05-27T10:00:31;102889.16;;;18.21;64.54
43745;BME280;29359;53.048;8.732;2023-05-27T10:02:35;102887.97;;;18.31;65.72
43745;BME280;29359;53.048;8.732;2023-05-27T10:04:37;102876.16;;;18.40;65.84
43745;BME280;29359;53.048;8.732;2023-05-27T10:06:39;102873.59;;;18.35;56.42
43745;BME280;29359;53.048;8.732;2023-05-27T10:08:43;102875.41;;;18.35;61.14
43745;BME280;29359;53.048;8.732;2023-05-27T10:10:45;102868.91;;;18.43;68.03
43745;BME280;29359;53.048;8.732;2023-05-27T10:12:49;102877.66;;;18.48;65.60
43745;BME280;29359;53.048;8.732;2023-05-27T10:14:52;102880.84;;;18.63;67.66
43745;BME280;29359;53.048;8.732;2023-05-27T10:16:55;102878.94;;;18.68;62.22
43745;BME280;29359;53.048;8.732;2023-05-27T10:18:58;102874.63;;;18.62;54.76
43745;BME280;29359;53.048;8.732;2023-05-27T10:21:03;102869.16;;;18.67;55.05
43745;BME280;29359;53.048;8.732;2023-05-27T10:23:19;102875.72;;;18.86;63.59
43745;BME280;29359;53.048;8.732;2023-05-27T10:25:35;102865.91;;;19.14;67.83
43745;BME280;29359;53.048;8.732;2023-05-27T10:27:44;102861.50;;;19.40;69.20
43745;BME280;29359;53.048;8.732;2023-05-27T10:29:56;102855.94;;;19.46;56.91
43745;BME280;29359;53.048;8.732;2023-05-27T10:31:58;102865.03;;;19.70;60.79
43745;BME280;29359;53.048;8.732;2023-05-27T10:33:59;102851.56;;;19.98;69.67
43745;BME280;29359;53.048;8.732;2023-05-27T10:36:14;102850.72;;;20.21;66.95
43745;BME280;29359;53.048;8.732;2023-05-27T10:38:17;102844.47;;;20.20;57.28
43745;BME280;29359;53.048;8.732;2023-05-27T10:40:25;102843.84;;;20.37;61.10
43745;BME280;29359;53.048;8.732;2023-05-27T10:42:27;102850.03;;;20.41;51.26
43745;BME280;29359;53.048;8.732;2023-05-27T10:44:33;102839.88;;;20.49;50.16
43745;BME280;29359;53.048;8.732;2023-05-27T10:46:44;102837.41;;;20.66;48.81
43745;BME280;29359;53.048;8.732;2023-05-27T10:48:45;102834.25;;;21.01;48.21
43745;BME280;29359;53.048;8.732;2023-05-27T10:50:51;102835.06;;;21.47;50.68